sensor_id;sensor_type;location;lat;lon;timestamp;temperature;humidity
48728;DHT22;34527;45.618;5.130;2023-02-01T00:01:12;5.50;99.90
48728;DHT22;34527;45.618;5.130;2023-02-01T00:03:38;5.50;99.90
48728;DHT22;34527;45.618;5.130;2023-02-01T00:06:04;5.50;99.90
48728;DHT22;34527;45.618;5.130;2023-02-01T00:08:29;5.50;99.90
48728;DHT22;34527;45.618;5.130;2023-02-01T00:11:02;5.40;99.90
48728;DHT22;34527;45.618;5.130;2023-02-01T00:13:30;5.40;99.90
48728;DHT22;34527;45.618;5.130;2023-02-01T00:16:08;5.40;99.90
48728;DHT22;34527;45.618;5.130;2023-02-01T00:18:34;5.40;99.90
48728;DHT22;34527;45.618;5.130;2023-02-01T00:21:00;5.40;99.90
48728;DHT22;34527;45.618;5.130;2023-02-01T00:23:26;5.40;99.90
48728;DHT22;34527;45.618;5.130;2023-02-01T00:25:52;5.30;99.90
48728;DHT22;34527;45.618;5.130;2023-02-01T00:28:18;5.40;99.90
48728;DHT22;34527;45.618;5.130;2023-02-01T00:30:43;5.40;99.90
48728;DHT22;34527;45.618;5.130;2023-02-01T00:33:09;5.40;99.90
48728;DHT22;34527;45.618;5.130;2023-02-01T00:35:35;5.40;99.90
48728;DHT22;34527;45.618;5.130;2023-02-01T00:38:01;5.40;99.90
48728;DHT22;34527;45.618;5.130;2023-02-01T00:40:27;5.40;99.90
48728;DHT22;34527;45.618;5.130;2023-02-01T00:42:52;5.40;99.90
48728;DHT22;34527;45.618;5.130;2023-02-01T00:45:19;5.40;99.90
48728;DHT22;34527;45.618;5.130;2023-02-01T00:47:44;5.30;99.90
48728;DHT22;34527;45.618;5.130;2023-02-01T00:50:10;5.30;99.90
48728;DHT22;34527;45.618;5.130;2023-02-01T00:52:36;5.20;99.90
48728;DHT22;34527;45.618;5.130;2023-02-01T00:55:02;5.20;99.90
48728;DHT22;34527;45.618;5.130;2023-02-01T00:57:27;5.10;99.90
48728;DHT22;34527;45.618;5.130;2023-02-01T00:59:53;5.10;99.90
48728;DHT22;34527;45.618;5.130;2023-02-01T01:02:18;5.10;99.90
48728;DHT22;34527;45.618;5.130;2023-02-01T01:04:44;5.00;99.90
48728;DHT22;34527;45.618;5.130;2023-02-01T01:07:09;4.90;99.90
48728;DHT22;34527;45.618;5.130;2023-02-01T01:09:35;5.00;99.90
48728;DHT22;34527;45.618;5.130;2023-02-01T01:12:01;5.00;99.90
48728;DHT22;34527;45.618;5.130;2023-02-01T01:14:29;5.00;99.90
48728;DHT22;34527;45.618;5.130;2023-02-01T01:16:54;5.00;99.90
48728;DHT22;34527;45.618;5.130;2023-02-01T01:19:20;5.00;99.90
48728;DHT22;34527;45.618;5.130;2023-02-01T01:21:46;5.00;99.90
48728;DHT22;34527;45.618;5.130;2023-02-01T01:24:11;5.00;99.90
48728;DHT22;34527;45.618;5.130;2023-02-01T01:26:37;5.00;99.90
48728;DHT22;34527;45.618;5.130;2023-02-01T01:29:03;5.00;99.90
48728;DHT22;34527;45.618;5.130;2023-02-01T01:31:29;4.90;99.90
48728;DHT22;34527;45.618;5.130;2023-02-01T01:33:57;4.90;99.90
48728;DHT22;34527;45.618;5.130;2023-02-01T01:36:24;4.90;99.90
48728;DHT22;34527;45.618;5.130;2023-02-01T01:38:51;4.90;99.90
48728;DHT22;34527;45.618;5.130;2023-02-01T01:41:20;4.80;99.90
48728;DHT22;34527;45.618;5.130;2023-02-01T01:46:16;4.80;99.90
48728;DHT22;34527;45.618;5.130;2023-02-01T01:48:42;4.80;99.90
48728;DHT22;34527;45.618;5.130;2023-02-01T01:51:10;4.80;99.90
48728;DHT22;34527;45.618;5.130;2023-02-01T01:54:21;4.80;99.90
48728;DHT22;34527;45.618;5.130;2023-02-01T01:56:38;4.80;99.90
48728;DHT22;34527;45.618;5.130;2023-02-01T01:59:06;4.90;99.90
48728;DHT22;34527;45.618;5.130;2023-02-01T02:01:32;4.90;99.90
48728;DHT22;34527;45.618;5.130;2023-02-01T02:03:59;4.90;99.90
48728;DHT22;34527;45.618;5.130;2023-02-01T02:06:48;4.90;99.90
48728;DHT22;34527;45.618;5.130;2023-02-01T02:09:16;4.90;99.90
48728;DHT22;34527;45.618;5.130;2023-02-01T02:11:41;4.90;99.90
48728;DHT22;34527;45.618;5.130;2023-02-01T02:14:09;5.00;99.90
48728;DHT22;34527;45.618;5.130;2023-02-01T02:19:22;5.00;99.90
48728;DHT22;34527;45.618;5.130;2023-02-01T02:35:59;5.00;99.90
48728;DHT22;34527;45.618;5.130;2023-02-01T02:38:45;5.00;99.90
48728;DHT22;34527;45.618;5.130;2023-02-01T02:43:45;4.90;99.90
48728;DHT22;34527;45.618;5.130;2023-02-01T02:46:36;4.90;99.90
48728;DHT22;34527;45.618;5.130;2023-02-01T02:49:43;4.80;99.90
48728;DHT22;34527;45.618;5.130;2023-02-01T02:52:37;4.70;99.90
48728;DHT22;34527;45.618;5.130;2023-02-01T02:55:26;4.60;99.90
48728;DHT22;34527;45.618;5.130;2023-02-01T02:57:55;4.50;99.90
48728;DHT22;34527;45.618;5.130;2023-02-01T03:00:40;4.50;99.90
48728;DHT22;34527;45.618;5.130;2023-02-01T03:03:25;4.40;99.90
48728;DHT22;34527;45.618;5.130;2023-02-01T03:06:14;4.30;99.90
48728;DHT22;34527;45.618;5.130;2023-02-01T03:08:41;4.30;99.90
48728;DHT22;34527;45.618;5.130;2023-02-01T03:11:12;4.20;99.90
48728;DHT22;34527;45.618;5.130;2023-02-01T03:13:57;4.20;99.90
48728;DHT22;34527;45.618;5.130;2023-02-01T03:19:02;3.90;99.90
48728;DHT22;34527;45.618;5.130;2023-02-01T03:21:38;3.80;99.90
48728;DHT22;34527;45.618;5.130;2023-02-01T03:26:45;3.60;99.90
48728;DHT22;34527;45.618;5.130;2023-02-01T03:29:19;3.50;99.90
48728;DHT22;34527;45.618;5.130;2023-02-01T03:31:47;3.30;99.90
48728;DHT22;34527;45.618;5.130;2023-02-01T03:34:13;3.20;99.90
48728;DHT22;34527;45.618;5.130;2023-02-01T03:36:48;3.20;99.90
48728;DHT22;34527;45.618;5.130;2023-02-01T03:39:31;3.20;99.90
48728;DHT22;34527;45.618;5.130;2023-02-01T03:42:01;3.20;99.90
48728;DHT22;34527;45.618;5.130;2023-02-01T03:47:36;3.10;99.90
48728;DHT22;34527;45.618;5.130;2023-02-01T03:50:01;3.10;99.90
48728;DHT22;34527;45.618;5.130;2023-02-01T03:52:38;3.20;99.90
48728;DHT22;34527;45.618;5.130;2023-02-01T03:55:06;3.20;99.90
48728;DHT22;34527;45.618;5.130;2023-02-01T03:57:36;3.30;99.90
48728;DHT22;34527;45.618;5.130;2023-02-01T04:00:18;3.30;99.90
48728;DHT22;34527;45.618;5.130;2023-02-01T04:02:44;3.40;99.90
48728;DHT22;34527;45.618;5.130;2023-02-01T04:05:10;3.40;99.90
48728;DHT22;34527;45.618;5.130;2023-02-01T04:07:35;3.10;99.90
48728;DHT22;34527;45.618;5.130;2023-02-01T04:10:01;3.20;99.90
48728;DHT22;34527;45.618;5.130;2023-02-01T04:12:29;3.40;99.90
48728;DHT22;34527;45.618;5.130;2023-02-01T04:14:54;3.40;99.90
48728;DHT22;34527;45.618;5.130;2023-02-01T04:17:20;3.50;99.90
48728;DHT22;34527;45.618;5.130;2023-02-01T04:19:45;3.50;99.90
48728;DHT22;34527;45.618;5.130;2023-02-01T04:22:11;3.50;99.90
48728;DHT22;34527;45.618;5.130;2023-02-01T04:24:38;3.60;99.90
48728;DHT22;34527;45.618;5.130;2023-02-01T04:27:03;3.60;99.90
48728;DHT22;34527;45.618;5.130;2023-02-01T04:29:29;3.70;99.90
48728;DHT22;34527;45.618;5.130;2023-02-01T04:31:55;3.70;99.90
48728;DHT22;34527;45.618;5.130;2023-02-01T04:34:20;3.70;99.90
48728;DHT22;34527;45.618;5.130;2023-02-01T04:36:48;3.80;99.90
48728;DHT22;34527;45.618;5.130;2023-02-01T04:39:14;3.80;99.90
48728;DHT22;34527;45.618;5.130;2023-02-01T04:41:39;3.70;99.90
48728;DHT22;34527;45.618;5.130;2023-02-01T04:44:05;3.80;99.90
48728;DHT22;34527;45.618;5.130;2023-02-01T04:46:31;3.80;99.90
48728;DHT22;34527;45.618;5.130;2023-02-01T04:48:56;3.80;99.90
48728;DHT22;34527;45.618;5.130;2023-02-01T04:51:22;3.70;99.90
48728;DHT22;34527;45.618;5.130;2023-02-01T04:53:48;3.80;99.90
48728;DHT22;34527;45.618;5.130;2023-02-01T04:56:13;3.90;99.90
48728;DHT22;34527;45.618;5.130;2023-02-01T04:58:39;3.70;99.90
48728;DHT22;34527;45.618;5.130;2023-02-01T05:01:05;3.90;99.90
48728;DHT22;34527;45.618;5.130;2023-02-01T05:03:32;3.90;99.90
48728;DHT22;34527;45.618;5.130;2023-02-01T05:05:58;3.90;99.90
48728;DHT22;34527;45.618;5.130;2023-02-01T05:08:24;4.00;99.90
48728;DHT22;34527;45.618;5.130;2023-02-01T05:10:51;4.00;99.90
48728;DHT22;34527;45.618;5.130;2023-02-01T05:13:16;4.00;99.90
48728;DHT22;34527;45.618;5.130;2023-02-01T05:16:00;4.00;99.90
48728;DHT22;34527;45.618;5.130;2023-02-01T05:18:26;4.00;99.90
48728;DHT22;34527;45.618;5.130;2023-02-01T05:20:52;4.00;99.90
48728;DHT22;34527;45.618;5.130;2023-02-01T05:23:17;4.10;99.90
48728;DHT22;34527;45.618;5.130;2023-02-01T05:25:43;4.10;99.90
48728;DHT22;34527;45.618;5.130;2023-02-01T05:28:09;4.10;99.90
48728;DHT22;34527;45.618;5.130;2023-02-01T05:30:34;4.20;99.90
48728;DHT22;34527;45.618;5.130;2023-02-01T05:33:01;4.20;99.90
48728;DHT22;34527;45.618;5.130;2023-02-01T05:35:27;4.30;99.90
48728;DHT22;34527;45.618;5.130;2023-02-01T05:37:52;4.30;99.90
48728;DHT22;34527;45.618;5.130;2023-02-01T05:40:18;4.30;99.90
48728;DHT22;34527;45.618;5.130;2023-02-01T05:42:43;4.30;99.90
48728;DHT22;34527;45.618;5.130;2023-02-01T05:45:09;4.40;99.90
48728;DHT22;34527;45.618;5.130;2023-02-01T05:47:35;4.40;99.90
48728;DHT22;34527;45.618;5.130;2023-02-01T05:50:01;4.30;99.90
48728;DHT22;34527;45.618;5.130;2023-02-01T05:52:27;4.20;99.90
48728;DHT22;34527;45.618;5.130;2023-02-01T05:54:52;4.20;99.90
48728;DHT22;34527;45.618;5.130;2023-02-01T05:57:18;4.30;99.90
48728;DHT22;34527;45.618;5.130;2023-02-01T05:59:43;4.30;99.90
48728;DHT22;34527;45.618;5.130;2023-02-01T06:02:15;4.30;99.90
48728;DHT22;34527;45.618;5.130;2023-02-01T06:04:40;4.30;99.90
48728;DHT22;34527;45.618;5.130;2023-02-01T06:07:07;4.30;99.90
48728;DHT22;34527;45.618;5.130;2023-02-01T06:09:35;4.20;99.90
48728;DHT22;34527;45.618;5.130;2023-02-01T06:12:01;4.30;99.90
48728;DHT22;34527;45.618;5.130;2023-02-01T06:14:27;4.30;99.90
48728;DHT22;34527;45.618;5.130;2023-02-01T06:16:56;4.40;99.90
48728;DHT22;34527;45.618;5.130;2023-02-01T06:19:22;4.40;99.90
48728;DHT22;34527;45.618;5.130;2023-02-01T06:21:48;4.40;99.90
48728;DHT22;34527;45.618;5.130;2023-02-01T06:24:13;4.40;99.90
48728;DHT22;34527;45.618;5.130;2023-02-01T06:26:39;4.40;99.90
48728;DHT22;34527;45.618;5.130;2023-02-01T06:29:10;4.40;99.90
48728;DHT22;34527;45.618;5.130;2023-02-01T06:31:35;4.50;99.90
48728;DHT22;34527;45.618;5.130;2023-02-01T06:34:01;4.50;99.90
48728;DHT22;34527;45.618;5.130;2023-02-01T06:36:28;4.50;99.90
48728;DHT22;34527;45.618;5.130;2023-02-01T06:38:55;4.40;99.90
48728;DHT22;34527;45.618;5.130;2023-02-01T06:41:22;4.40;99.90
48728;DHT22;34527;45.618;5.130;2023-02-01T06:43:48;4.40;99.90
48728;DHT22;34527;45.618;5.130;2023-02-01T06:46:14;4.40;99.90
48728;DHT22;34527;45.618;5.130;2023-02-01T06:48:40;4.40;99.90
48728;DHT22;34527;45.618;5.130;2023-02-01T06:51:05;4.40;99.90
48728;DHT22;34527;45.618;5.130;2023-02-01T06:53:31;4.50;99.90
48728;DHT22;34527;45.618;5.130;2023-02-01T06:56:03;4.50;99.90
48728;DHT22;34527;45.618;5.130;2023-02-01T06:58:32;4.50;99.90
48728;DHT22;34527;45.618;5.130;2023-02-01T07:01:04;4.60;99.90
48728;DHT22;34527;45.618;5.130;2023-02-01T07:03:30;4.60;99.90
48728;DHT22;34527;45.618;5.130;2023-02-01T07:05:57;4.60;99.90
48728;DHT22;34527;45.618;5.130;2023-02-01T07:08:24;4.70;99.90
48728;DHT22;34527;45.618;5.130;2023-02-01T07:10:50;4.70;99.90
48728;DHT22;34527;45.618;5.130;2023-02-01T07:13:16;4.70;99.90
48728;DHT22;34527;45.618;5.130;2023-02-01T07:15:41;4.70;99.90
48728;DHT22;34527;45.618;5.130;2023-02-01T07:18:07;4.70;99.90
48728;DHT22;34527;45.618;5.130;2023-02-01T07:20:32;4.70;99.90
48728;DHT22;34527;45.618;5.130;2023-02-01T07:22:58;4.60;99.90
48728;DHT22;34527;45.618;5.130;2023-02-01T07:25:24;4.60;99.90
48728;DHT22;34527;45.618;5.130;2023-02-01T07:27:49;4.60;99.90
48728;DHT22;34527;45.618;5.130;2023-02-01T07:30:15;4.60;99.90
48728;DHT22;34527;45.618;5.130;2023-02-01T07:32:41;4.50;99.90
48728;DHT22;34527;45.618;5.130;2023-02-01T07:35:06;4.60;99.90
48728;DHT22;34527;45.618;5.130;2023-02-01T07:37:32;4.60;99.90
48728;DHT22;34527;45.618;5.130;2023-02-01T07:39:58;4.50;99.90
48728;DHT22;34527;45.618;5.130;2023-02-01T07:42:24;4.50;99.90
48728;DHT22;34527;45.618;5.130;2023-02-01T07:44:49;4.60;99.90
48728;DHT22;34527;45.618;5.130;2023-02-01T07:47:15;4.60;99.90
48728;DHT22;34527;45.618;5.130;2023-02-01T07:49:40;4.60;99.90
48728;DHT22;34527;45.618;5.130;2023-02-01T07:52:06;4.70;99.90
48728;DHT22;34527;45.618;5.130;2023-02-01T07:54:32;4.60;99.90
48728;DHT22;34527;45.618;5.130;2023-02-01T07:56:57;4.70;99.90
48728;DHT22;34527;45.618;5.130;2023-02-01T07:59:23;4.70;99.90
48728;DHT22;34527;45.618;5.130;2023-02-01T08:01:48;4.80;99.90
48728;DHT22;34527;45.618;5.130;2023-02-01T08:04:14;4.80;99.90
48728;DHT22;34527;45.618;5.130;2023-02-01T08:06:40;4.80;99.90
48728;DHT22;34527;45.618;5.130;2023-02-01T08:09:06;4.80;99.90
48728;DHT22;34527;45.618;5.130;2023-02-01T08:11:36;4.80;99.90
48728;DHT22;34527;45.618;5.130;2023-02-01T08:14:04;4.70;99.90
48728;DHT22;34527;45.618;5.130;2023-02-01T08:16:31;4.70;99.90
48728;DHT22;34527;45.618;5.130;2023-02-01T08:18:57;4.70;99.90
48728;DHT22;34527;45.618;5.130;2023-02-01T08:21:25;4.70;99.90
48728;DHT22;34527;45.618;5.130;2023-02-01T08:23:51;4.70;99.90
48728;DHT22;34527;45.618;5.130;2023-02-01T08:26:23;4.70;99.90
48728;DHT22;34527;45.618;5.130;2023-02-01T08:28:53;4.70;99.90
48728;DHT22;34527;45.618;5.130;2023-02-01T08:31:20;4.70;99.90
48728;DHT22;34527;45.618;5.130;2023-02-01T08:33:52;4.70;99.90
48728;DHT22;34527;45.618;5.130;2023-02-01T08:36:18;4.70;99.90
48728;DHT22;34527;45.618;5.130;2023-02-01T08:38:45;4.80;99.90
48728;DHT22;34527;45.618;5.130;2023-02-01T08:41:13;4.80;99.90
48728;DHT22;34527;45.618;5.130;2023-02-01T08:43:39;4.80;99.90
48728;DHT22;34527;45.618;5.130;2023-02-01T08:46:06;4.90;99.90
48728;DHT22;34527;45.618;5.130;2023-02-01T08:48:33;5.00;99.90
48728;DHT22;34527;45.618;5.130;2023-02-01T08:51:04;5.10;99.90
48728;DHT22;34527;45.618;5.130;2023-02-01T08:53:30;5.20;99.90
48728;DHT22;34527;45.618;5.130;2023-02-01T08:55:56;5.30;99.90
48728;DHT22;34527;45.618;5.130;2023-02-01T08:58:22;5.40;99.90
48728;DHT22;34527;45.618;5.130;2023-02-01T09:00:50;5.30;99.90
48728;DHT22;34527;45.618;5.130;2023-02-01T09:03:16;5.30;99.90
48728;DHT22;34527;45.618;5.130;2023-02-01T09:05:42;5.30;99.90
48728;DHT22;34527;45.618;5.130;2023-02-01T09:08:08;5.30;99.90
48728;DHT22;34527;45.618;5.130;2023-02-01T09:10:35;5.30;99.90
48728;DHT22;34527;45.618;5.130;2023-02-01T09:13:01;5.40;99.90
48728;DHT22;34527;45.618;5.130;2023-02-01T09:15:27;5.40;99.90
48728;DHT22;34527;45.618;5.130;2023-02-01T09:17:52;5.30;99.90
48728;DHT22;34527;45.618;5.130;2023-02-01T09:20:18;5.30;99.90
48728;DHT22;34527;45.618;5.130;2023-02-01T09:22:45;5.50;99.90
48728;DHT22;34527;45.618;5.130;2023-02-01T09:25:11;5.60;99.90
48728;DHT22;34527;45.618;5.130;2023-02-01T09:27:36;5.60;99.90
48728;DHT22;34527;45.618;5.130;2023-02-01T09:30:03;5.50;99.90
48728;DHT22;34527;45.618;5.130;2023-02-01T09:32:30;5.50;99.90
48728;DHT22;34527;45.618;5.130;2023-02-01T09:34:55;5.50;99.90
48728;DHT22;34527;45.618;5.130;2023-02-01T09:37:21;5.60;99.90
48728;DHT22;34527;45.618;5.130;2023-02-01T09:39:47;5.60;99.90
48728;DHT22;34527;45.618;5.130;2023-02-01T09:48:03;5.60;99.90
48728;DHT22;34527;45.618;5.130;2023-02-01T09:50:34;5.60;99.90
48728;DHT22;34527;45.618;5.130;2023-02-01T09:55:50;5.60;99.90
48728;DHT22;34527;45.618;5.130;2023-02-01T09:58:22;5.60;99.90
48728;DHT22;34527;45.618;5.130;2023-02-01T10:00:53;5.70;99.90
48728;DHT22;34527;45.618;5.130;2023-02-01T10:03:20;5.70;99.90
48728;DHT22;34527;45.618;5.130;2023-02-01T10:12:00;5.70;99.90
48728;DHT22;34527;45.618;5.130;2023-02-01T10:14:43;5.80;99.90
48728;DHT22;34527;45.618;5.130;2023-02-01T10:17:31;5.80;99.90
48728;DHT22;34527;45.618;5.130;2023-02-01T10:23:06;5.80;99.90
48728;DHT22;34527;45.618;5.130;2023-02-01T10:25:40;5.80;99.90
48728;DHT22;34527;45.618;5.130;2023-02-01T10:28:13;5.80;99.90
48728;DHT22;34527;45.618;5.130;2023-02-01T10:30:44;6.00;99.90
48728;DHT22;34527;45.618;5.130;2023-02-01T10:33:30;6.10;99.90
48728;DHT22;34527;45.618;5.130;2023-02-01T10:36:25;6.10;99.90
48728;DHT22;34527;45.618;5.130;2023-02-01T10:38:53;6.20;99.90
48728;DHT22;34527;45.618;5.130;2023-02-01T10:41:23;6.30;99.90
48728;DHT22;34527;45.618;5.130;2023-02-01T10:43:54;6.40;99.90
48728;DHT22;34527;45.618;5.130;2023-02-01T10:46:22;6.30;99.90
48728;DHT22;34527;45.618;5.130;2023-02-01T10:48:50;6.20;99.90
48728;DHT22;34527;45.618;5.130;2023-02-01T10:51:32;6.20;99.90
48728;DHT22;34527;45.618;5.130;2023-02-01T10:54:16;6.30;99.90
48728;DHT22;34527;45.618;5.130;2023-02-01T10:56:44;6.50;99.90
48728;DHT22;34527;45.618;5.130;2023-02-01T10:59:24;6.40;99.90
48728;DHT22;34527;45.618;5.130;2023-02-01T11:01:57;6.60;99.90
48728;DHT22;34527;45.618;5.130;2023-02-01T11:04:24;6.40;99.90
48728;DHT22;34527;45.618;5.130;2023-02-01T11:07:03;6.60;99.90
48728;DHT22;34527;45.618;5.130;2023-02-01T11:09:38;6.70;99.90
48728;DHT22;34527;45.618;5.130;2023-02-01T11:12:05;6.80;99.90
48728;DHT22;34527;45.618;5.130;2023-02-01T11:14:40;6.70;99.90
48728;DHT22;34527;45.618;5.130;2023-02-01T11:19:45;6.60;99.90
48728;DHT22;34527;45.618;5.130;2023-02-01T11:22:12;6.70;99.90
48728;DHT22;34527;45.618;5.130;2023-02-01T11:24:38;6.80;99.90
48728;DHT22;34527;45.618;5.130;2023-02-01T11:27:14;6.90;99.90
48728;DHT22;34527;45.618;5.130;2023-02-01T11:29:41;7.10;99.90
48728;DHT22;34527;45.618;5.130;2023-02-01T11:32:09;7.10;99.90
48728;DHT22;34527;45.618;5.130;2023-02-01T11:37:04;7.00;99.90
48728;DHT22;34527;45.618;5.130;2023-02-01T11:39:33;6.90;99.90
48728;DHT22;34527;45.618;5.130;2023-02-01T11:42:15;7.00;99.90
48728;DHT22;34527;45.618;5.130;2023-02-01T11:44:42;7.00;99.90
48728;DHT22;34527;45.618;5.130;2023-02-01T11:49:43;6.90;99.90
48728;DHT22;34527;45.618;5.130;2023-02-01T11:54:56;6.90;99.90
48728;DHT22;34527;45.618;5.130;2023-02-01T12:00:32;6.80;99.90
48728;DHT22;34527;45.618;5.130;2023-02-01T12:17:05;7.50;99.90
48728;DHT22;34527;45.618;5.130;2023-02-01T12:19:47;7.50;99.90
48728;DHT22;34527;45.618;5.130;2023-02-01T12:31:23;7.60;99.90
48728;DHT22;34527;45.618;5.130;2023-02-01T12:34:14;7.40;99.90
48728;DHT22;34527;45.618;5.130;2023-02-01T12:42:26;7.40;99.90
48728;DHT22;34527;45.618;5.130;2023-02-01T12:47:51;7.60;99.90
48728;DHT22;34527;45.618;5.130;2023-02-01T12:50:24;7.60;99.90
48728;DHT22;34527;45.618;5.130;2023-02-01T12:52:54;7.50;99.90
48728;DHT22;34527;45.618;5.130;2023-02-01T12:55:44;7.60;99.90
48728;DHT22;34527;45.618;5.130;2023-02-01T12:58:27;7.60;99.90
48728;DHT22;34527;45.618;5.130;2023-02-01T13:00:59;7.50;99.90
48728;DHT22;34527;45.618;5.130;2023-02-01T13:09:18;7.60;99.90
48728;DHT22;34527;45.618;5.130;2023-02-01T13:11:46;7.50;99.90
48728;DHT22;34527;45.618;5.130;2023-02-01T13:14:44;7.50;99.90
48728;DHT22;34527;45.618;5.130;2023-02-01T13:17:24;7.40;99.90
48728;DHT22;34527;45.618;5.130;2023-02-01T13:22:39;7.20;99.90
48728;DHT22;34527;45.618;5.130;2023-02-01T13:25:28;7.20;99.90
48728;DHT22;34527;45.618;5.130;2023-02-01T13:27:57;7.20;99.90
48728;DHT22;34527;45.618;5.130;2023-02-01T13:31:18;7.40;99.90
48728;DHT22;34527;45.618;5.130;2023-02-01T13:36:34;7.70;99.90
48728;DHT22;34527;45.618;5.130;2023-02-01T13:41:53;7.70;99.90
48728;DHT22;34527;45.618;5.130;2023-02-01T13:44:34;7.70;99.90
48728;DHT22;34527;45.618;5.130;2023-02-01T13:47:08;7.80;99.90
48728;DHT22;34527;45.618;5.130;2023-02-01T13:49:38;7.80;99.90
48728;DHT22;34527;45.618;5.130;2023-02-01T13:52:05;7.80;99.90
48728;DHT22;34527;45.618;5.130;2023-02-01T13:54:35;7.90;99.90
48728;DHT22;34527;45.618;5.130;2023-02-01T13:57:03;7.80;99.90
48728;DHT22;34527;45.618;5.130;2023-02-01T14:05:10;7.80;99.90
48728;DHT22;34527;45.618;5.130;2023-02-01T14:13:38;7.70;99.90
48728;DHT22;34527;45.618;5.130;2023-02-01T14:21:32;7.80;99.90
48728;DHT22;34527;45.618;5.130;2023-02-01T14:26:49;7.80;99.90
48728;DHT22;34527;45.618;5.130;2023-02-01T14:31:54;7.90;99.90
48728;DHT22;34527;45.618;5.130;2023-02-01T14:35:05;7.90;99.90
48728;DHT22;34527;45.618;5.130;2023-02-01T14:37:31;7.90;99.90
48728;DHT22;34527;45.618;5.130;2023-02-01T14:40:14;7.90;99.90
48728;DHT22;34527;45.618;5.130;2023-02-01T14:55:56;7.70;99.90
48728;DHT22;34527;45.618;5.130;2023-02-01T15:03:58;7.70;99.90
48728;DHT22;34527;45.618;5.130;2023-02-01T15:06:58;7.70;99.90
48728;DHT22;34527;45.618;5.130;2023-02-01T15:09:44;7.70;99.90
48728;DHT22;34527;45.618;5.130;2023-02-01T15:14:44;7.70;99.90
48728;DHT22;34527;45.618;5.130;2023-02-01T15:17:23;7.70;99.90
48728;DHT22;34527;45.618;5.130;2023-02-01T15:20:20;7.70;99.90
48728;DHT22;34527;45.618;5.130;2023-02-01T15:25:30;7.60;99.90
48728;DHT22;34527;45.618;5.130;2023-02-01T15:27:57;7.60;99.90
48728;DHT22;34527;45.618;5.130;2023-02-01T15:30:28;7.60;99.90
48728;DHT22;34527;45.618;5.130;2023-02-01T15:33:24;7.60;99.90
48728;DHT22;34527;45.618;5.130;2023-02-01T15:35:53;7.50;99.90
48728;DHT22;34527;45.618;5.130;2023-02-01T15:41:07;7.50;99.90
48728;DHT22;34527;45.618;5.130;2023-02-01T15:43:40;7.40;99.90
48728;DHT22;34527;45.618;5.130;2023-02-01T15:46:14;7.40;99.90
48728;DHT22;34527;45.618;5.130;2023-02-01T15:48:49;7.40;99.90
48728;DHT22;34527;45.618;5.130;2023-02-01T15:51:25;7.40;99.90
48728;DHT22;34527;45.618;5.130;2023-02-01T15:53:56;7.40;99.90
48728;DHT22;34527;45.618;5.130;2023-02-01T15:56:29;7.30;99.90
48728;DHT22;34527;45.618;5.130;2023-02-01T15:59:00;7.30;99.90
48728;DHT22;34527;45.618;5.130;2023-02-01T16:01:26;7.30;99.90
48728;DHT22;34527;45.618;5.130;2023-02-01T16:06:32;7.20;99.90
48728;DHT22;34527;45.618;5.130;2023-02-01T16:09:03;7.20;99.90
48728;DHT22;34527;45.618;5.130;2023-02-01T16:11:47;7.20;99.90
48728;DHT22;34527;45.618;5.130;2023-02-01T16:14:13;7.20;99.90
48728;DHT22;34527;45.618;5.130;2023-02-01T16:16:38;7.20;99.90
48728;DHT22;34527;45.618;5.130;2023-02-01T16:19:04;7.20;99.90
48728;DHT22;34527;45.618;5.130;2023-02-01T16:21:30;7.20;99.90
48728;DHT22;34527;45.618;5.130;2023-02-01T16:23:55;7.20;99.90
48728;DHT22;34527;45.618;5.130;2023-02-01T16:26:21;7.20;99.90
48728;DHT22;34527;45.618;5.130;2023-02-01T16:28:47;7.10;99.90
48728;DHT22;34527;45.618;5.130;2023-02-01T16:31:17;7.10;99.90
48728;DHT22;34527;45.618;5.130;2023-02-01T16:33:49;7.10;99.90
48728;DHT22;34527;45.618;5.130;2023-02-01T16:36:16;7.10;99.90
48728;DHT22;34527;45.618;5.130;2023-02-01T16:38:42;7.10;99.90
48728;DHT22;34527;45.618;5.130;2023-02-01T16:41:13;7.10;99.90
48728;DHT22;34527;45.618;5.130;2023-02-01T16:43:39;7.10;99.90
48728;DHT22;34527;45.618;5.130;2023-02-01T16:46:05;7.00;99.90
48728;DHT22;34527;45.618;5.130;2023-02-01T16:48:36;7.00;99.90
48728;DHT22;34527;45.618;5.130;2023-02-01T16:51:07;7.00;99.90
48728;DHT22;34527;45.618;5.130;2023-02-01T16:53:34;7.00;99.90
48728;DHT22;34527;45.618;5.130;2023-02-01T16:55:59;7.00;99.90
48728;DHT22;34527;45.618;5.130;2023-02-01T16:58:26;6.90;99.90
48728;DHT22;34527;45.618;5.130;2023-02-01T17:00:52;6.90;99.90
48728;DHT22;34527;45.618;5.130;2023-02-01T17:03:20;6.90;99.90
48728;DHT22;34527;45.618;5.130;2023-02-01T17:05:51;6.90;99.90
48728;DHT22;34527;45.618;5.130;2023-02-01T17:08:36;6.80;99.90
48728;DHT22;34527;45.618;5.130;2023-02-01T17:11:03;6.80;99.90
48728;DHT22;34527;45.618;5.130;2023-02-01T17:13:29;6.80;99.90
48728;DHT22;34527;45.618;5.130;2023-02-01T17:15:58;6.80;99.90
48728;DHT22;34527;45.618;5.130;2023-02-01T17:18:27;6.80;99.90
48728;DHT22;34527;45.618;5.130;2023-02-01T17:20:57;6.80;99.90
48728;DHT22;34527;45.618;5.130;2023-02-01T17:23:22;6.80;99.90
48728;DHT22;34527;45.618;5.130;2023-02-01T17:25:48;6.80;99.90
48728;DHT22;34527;45.618;5.130;2023-02-01T17:28:14;6.80;99.90
48728;DHT22;34527;45.618;5.130;2023-02-01T17:30:39;6.80;99.90
48728;DHT22;34527;45.618;5.130;2023-02-01T17:33:23;6.80;99.90
48728;DHT22;34527;45.618;5.130;2023-02-01T17:35:49;6.80;99.90
48728;DHT22;34527;45.618;5.130;2023-02-01T17:38:14;6.70;99.90
48728;DHT22;34527;45.618;5.130;2023-02-01T17:40:40;6.70;99.90
48728;DHT22;34527;45.618;5.130;2023-02-01T17:43:13;6.70;99.90
48728;DHT22;34527;45.618;5.130;2023-02-01T17:45:44;6.70;99.90
48728;DHT22;34527;45.618;5.130;2023-02-01T17:48:14;6.70;99.90
48728;DHT22;34527;45.618;5.130;2023-02-01T17:50:40;6.70;99.90
48728;DHT22;34527;45.618;5.130;2023-02-01T17:53:06;6.70;99.90
48728;DHT22;34527;45.618;5.130;2023-02-01T17:55:35;6.70;99.90
48728;DHT22;34527;45.618;5.130;2023-02-01T17:58:02;6.70;99.90
48728;DHT22;34527;45.618;5.130;2023-02-01T18:00:28;6.60;99.90
48728;DHT22;34527;45.618;5.130;2023-02-01T18:02:54;6.60;99.90
48728;DHT22;34527;45.618;5.130;2023-02-01T18:07:49;6.60;99.90
48728;DHT22;34527;45.618;5.130;2023-02-01T18:10:15;6.60;99.90
48728;DHT22;34527;45.618;5.130;2023-02-01T18:12:40;6.60;99.90
48728;DHT22;34527;45.618;5.130;2023-02-01T18:15:25;6.50;99.90
48728;DHT22;34527;45.618;5.130;2023-02-01T18:17:51;6.50;99.90
48728;DHT22;34527;45.618;5.130;2023-02-01T18:20:20;6.50;99.90
48728;DHT22;34527;45.618;5.130;2023-02-01T18:22:46;6.50;99.90
48728;DHT22;34527;45.618;5.130;2023-02-01T18:27:41;6.50;99.90
48728;DHT22;34527;45.618;5.130;2023-02-01T18:30:08;6.50;99.90
48728;DHT22;34527;45.618;5.130;2023-02-01T18:32:33;6.50;99.90
48728;DHT22;34527;45.618;5.130;2023-02-01T18:34:59;6.40;99.90
48728;DHT22;34527;45.618;5.130;2023-02-01T18:37:25;6.40;99.90
48728;DHT22;34527;45.618;5.130;2023-02-01T18:39:50;6.40;99.90
48728;DHT22;34527;45.618;5.130;2023-02-01T18:42:16;6.40;99.90
48728;DHT22;34527;45.618;5.130;2023-02-01T18:44:41;6.40;99.90